Airfield :
LOGIN :

Register | Disclaimer

   EN    FR    IT 

 










Legend :    VFR   Marginal VFR   IFR   Intensive IFR   Very Intensive IFR
Visi :
Ceiling :
>= 8 km
>= 3000ft
5 to 8 km
1000 to 3000 ft
1500m to 5 km
500 to 1000 ft
800 to 1500m
200 to 500 ft
< 800m
< 200 ft
Symbols :   Thunderstorms  Fog  Heavy snow  Heavy precipitations  Wind > 20 kt
SIGMETs :     Misc.  Thunderstorms  Icing  Turbulence  Mountain Waves  Volcanic Ashes






- Airport Elevation : 17 ft
- IATA code : GRS


LIRS - Grosseto

CURRENT METAR :
  • 161755Z 16008KT 8000 FEW015 SCT040 BKN050 25/23 Q1014 1 RMK OVC VIS MIN 8000 WIND THR03 18007KT WIND THR21 17008KT BLU

EXPIRED METARs :
  • 161655Z 14008KT 9999 FEW015TCU SCT020 26/24 Q1015
  • 161555Z 15011KT 9999 FEW015 SCT040 26/23 Q1015 RMK BKN VIS MIN 8000NW WIND THR03 15010KT WIND THR21 15009KT BLU

TAF TAF LIRS
Valid from the 16 at 18:00 until the 17 at 03:00 UTC


161700Z 1618/1703 VRB05KT 9999 FEW015 SCT030
TEMPO 1618/1620 14010KT
TEMPO 1618/1703 5000 TSRA FEW020CB SCT030



MET'MAP, your aeronautical weather chart ! - Copyright ORBIFLY December 2007 - Disclaimer

ORBIFLY MET'MAP TEAM :

Programming & Development : Alexandra Zaïnal
Concept & original design : Baudouin d'Aumeries
Assistance for programming : Marc-Olivier Méhu
Technical & hardware support : Manuel Goepfert

Contact : metmap@orbifly.com




SOURCES & CREDITS :

   NOAA